Latest Weather Observations for Bedout Island

IDW60801

Issued at 6:33 pm WST Friday 30 January 2015 (issued every 30 minutes, with the page automatically refreshed every 10 minutes)

About weather observations | Map of weather stations | Latest weather observations for WA | Other Formats
Station Details ID: 004100 Name: BEDOUT ISLAND Lat: -19.59 Lon: 119.10 Height: 8.6 m
Data from the previous 72 hours. | See also: Recent months for locations in Western Australia
Date/Time
WST
Temp
°C
App
Temp
°C
Dew
Point
Rel
Hum
%
Delta-T
°C
Wind Press
QNH
hPa
Press
MSL
hPa
Rain
since 9 am
mm
Dir
 
Spd
km/h
Gust
km/h
Spd
kts
Gust
kts
30/06:30pm 28.6 28.2 22.3 68 4.3 NW 28 35 15 19 1005.5 - -
30/06:00pm 29.2 28.1 22.4 66 4.6 NW 32 37 17 20 1005.2 1005.1 -
30/05:30pm 29.9 28.6 22.1 63 5.3 NW 32 37 17 20 1005.2 - -
30/03:30pm 32.3 32.3 23.0 58 6.4 NW 28 32 15 17 1005.7 - -
30/03:00pm 31.9 31.8 22.3 56 6.6 NW 26 30 14 16 1006.0 1005.9 -
30/02:30pm 32.0 32.2 22.1 55 6.7 WNW 24 28 13 15 1006.2 - -
30/02:00pm 32.4 33.8 22.8 57 6.6 NW 20 28 11 15 1006.7 - -
30/01:30pm 33.4 34.7 23.4 55 6.9 WNW 22 28 12 15 1007.0 - -
30/01:00pm 33.2 34.1 22.6 53 7.3 WNW 22 26 12 14 1007.1 - -
30/12:30pm 32.3 33.6 22.7 57 6.6 WNW 20 24 11 13 1007.2 - -
30/12:00pm 32.6 33.6 22.1 54 7.2 WNW 20 24 11 13 1007.6 1007.5 -
30/11:30am 32.5 34.7 23.2 58 6.4 W 17 20 9 11 1008.0 - -
30/11:00am 32.1 33.2 21.9 54 6.9 W 19 22 10 12 1008.2 - -
30/10:30am 32.1 33.5 22.5 57 6.6 W 19 24 10 13 1008.5 - -
30/10:00am 31.8 33.2 22.5 58 6.4 W 19 24 10 13 1008.8 - -
30/09:30am 31.2 32.2 22.2 58 6.1 W 20 24 11 13 1008.7 - -
30/09:00am 31.1 31.5 22.4 60 5.9 W 24 28 13 15 1008.5 1008.4 -
30/08:30am 30.5 30.8 22.9 64 5.2 W 26 30 14 16 1008.4 - -
30/08:00am 29.8 30.1 23.0 67 4.7 W 26 30 14 16 1008.4 - -
30/07:30am 29.1 30.0 23.3 71 4.0 WSW 24 28 13 15 1008.1 - -
30/07:00am 28.4 29.3 22.6 71 3.9 W 22 28 12 15 1008.1 - -
30/06:30am 27.9 28.3 23.1 75 3.3 W 26 32 14 17 1007.4 - -
30/06:00am 27.4 27.9 22.6 75 3.3 NW 24 30 13 16 1006.9 1006.8 -
30/05:30am 27.2 26.6 22.6 76 3.1 WNW 30 35 16 19 1006.2 - -
30/05:00am 27.2 26.1 22.8 77 3.0 WNW 33 37 18 20 1005.9 - -
30/04:30am 27.3 26.2 22.5 75 3.2 WNW 32 39 17 21 1005.7 - -
30/04:00am 27.3 26.0 22.5 75 3.2 NW 33 35 18 19 1005.5 - -
30/03:30am 27.2 26.8 22.4 75 3.2 WNW 28 33 15 18 1005.6 - -
30/03:00am 27.2 26.9 22.6 76 3.1 WNW 28 32 15 17 1005.8 1005.7 -
30/02:30am 27.2 26.9 22.6 76 3.1 WNW 28 35 15 19 1005.8 - -
30/02:00am 27.3 28.3 22.9 77 3.0 WNW 22 26 12 14 1006.3 - -
30/01:30am 27.3 28.0 22.3 74 3.4 WNW 22 26 12 14 1006.4 - -
30/01:00am 27.6 27.9 23.0 76 3.1 W 26 30 14 16 1006.5 - -
30/12:30am 27.5 27.3 22.7 75 3.3 WNW 28 33 15 18 1006.3 - -
30/12:00am 27.9 29.0 23.1 75 3.3 W 22 28 12 15 1007.4 1007.3 -
 
Date/Time
WST
Temp
°C
App
Temp
°C
Dew
Point
Rel
Hum
%
Delta-T
°C
Wind Press
QNH
hPa
Press
MSL
hPa
Rain
since 9 am
mm
Dir
 
Spd
km/h
Gust
km/h
Spd
kts
Gust
kts
29/11:30pm 27.7 28.6 22.6 74 3.5 W 22 26 12 14 1007.5 - -
29/11:00pm 27.8 28.9 23.0 75 3.3 WNW 22 28 12 15 1007.7 - -
29/10:30pm 27.7 28.7 22.9 75 3.3 WNW 22 28 12 15 1007.4 - -
29/10:00pm 27.8 28.2 23.2 76 3.1 W 26 32 14 17 1007.4 - -
29/09:30pm 27.8 28.5 23.0 75 3.3 W 24 30 13 16 1006.9 - -
29/09:00pm 28.0 28.5 22.7 73 3.6 W 24 28 13 15 1006.9 1006.8 -
29/08:30pm 28.0 27.8 22.0 70 4.0 WNW 26 30 14 16 1006.5 - -
29/08:00pm 28.0 28.8 22.5 72 3.7 WNW 22 26 12 14 1006.0 - -
29/07:30pm 28.0 28.4 22.5 72 3.7 WNW 24 28 13 15 1005.4 - -
29/07:00pm 28.1 29.0 22.6 72 3.7 WNW 22 28 12 15 1005.1 - -
29/06:30pm 28.5 29.2 22.3 69 4.2 WNW 22 28 12 15 1004.6 - -
29/06:00pm 29.5 30.3 23.2 69 4.3 WNW 24 30 13 16 1004.4 1004.3 -
29/05:30pm 30.1 30.3 22.8 65 5.0 WNW 26 30 14 16 1004.2 - -
29/05:00pm 30.2 30.1 22.9 65 5.0 NW 28 33 15 18 1003.9 - -
29/04:30pm 30.7 30.2 22.8 62 5.4 WNW 30 33 16 18 1004.0 - -
29/04:00pm 31.5 31.6 23.3 61 5.7 WNW 28 32 15 17 1004.2 - -
29/03:30pm 31.8 32.0 22.8 59 6.2 WNW 26 32 14 17 1004.6 - -
29/03:00pm 31.8 31.5 22.5 58 6.4 WNW 28 35 15 19 1004.7 1004.6 -
29/02:30pm 32.2 32.3 22.6 57 6.6 WNW 26 32 14 17 1005.1 - -
29/02:00pm 32.6 33.1 22.7 56 6.8 W 24 30 13 16 1005.4 - -
29/01:30pm 32.5 34.1 22.9 57 6.6 W 19 22 10 12 1005.9 - -
29/01:00pm 32.0 34.1 22.4 57 6.6 W 15 20 8 11 1006.2 - -
29/12:30pm 32.2 34.0 22.6 57 6.6 W 17 20 9 11 1006.6 - -
29/12:00pm 32.4 34.3 22.8 57 6.6 W 17 20 9 11 1006.9 1006.8 -
29/11:30am 32.2 33.5 22.3 56 6.8 WNW 19 22 10 12 1007.0 - -
29/11:00am 32.2 33.5 23.4 59 6.1 W 22 30 12 16 1007.0 - -
29/10:30am 32.1 34.0 22.8 58 6.4 W 17 20 9 11 1007.6 - -
29/10:00am 31.6 33.5 22.0 56 6.5 W 15 19 8 10 1008.0 - -
29/09:30am 31.0 33.4 21.5 57 6.4 W 11 15 6 8 1008.1 - -
29/09:00am 30.8 33.5 22.1 59 5.9 W 11 15 6 8 1008.2 1008.1 -
29/08:30am 30.3 32.4 22.5 63 5.3 W 15 17 8 9 1008.3 - -
29/08:00am 29.7 32.6 22.4 65 5.0 W 11 15 6 8 1008.3 - -
29/07:30am 28.2 30.5 22.0 69 4.2 WSW 13 15 7 8 1008.2 - -
29/07:00am 27.9 29.8 22.1 70 3.9 WSW 15 17 8 9 1008.0 - -
29/06:30am 27.8 29.1 22.3 72 3.7 W 19 22 10 12 1007.0 - -
29/06:00am 27.1 27.9 21.8 73 3.6 W 20 24 11 13 1006.4 1006.3 -
29/05:30am 27.1 27.5 22.5 76 3.1 W 24 30 13 16 1006.0 - -
29/05:00am 26.9 26.6 21.9 74 3.3 W 26 32 14 17 1005.6 - -
29/04:30am 27.1 26.3 22.3 75 3.2 W 30 35 16 19 1005.1 - -
29/04:00am 27.0 25.8 22.2 75 3.2 W 32 35 17 19 1004.9 - -
29/03:30am 27.1 26.4 22.5 76 3.1 W 30 35 16 19 1005.0 - -
29/03:00am 27.2 26.3 22.2 74 3.4 W 30 32 16 17 1004.8 1004.7 -
29/02:30am 27.2 26.3 22.2 74 3.4 W 30 32 16 17 1004.8 - -
29/02:00am 27.2 26.6 22.6 76 3.1 W 30 35 16 19 1004.7 - -
29/01:30am 27.2 26.6 22.6 76 3.1 W 30 35 16 19 1004.8 - -
29/01:00am 27.2 26.6 22.6 76 3.1 W 30 35 16 19 1005.2 - -
29/12:30am 27.2 27.0 22.8 77 3.0 W 28 33 15 18 1005.4 - -
29/12:00am 27.2 26.3 22.8 77 3.0 WNW 32 37 17 20 1005.7 1005.6 -
 
Date/Time
WST
Temp
°C
App
Temp
°C
Dew
Point
Rel
Hum
%
Delta-T
°C
Wind Press
QNH
hPa
Press
MSL
hPa
Rain
since 9 am
mm
Dir
 
Spd
km/h
Gust
km/h
Spd
kts
Gust
kts
28/11:30pm 27.1 25.9 22.7 77 3.0 WNW 33 37 18 20 1005.7 - -
28/11:00pm 27.1 26.1 22.7 77 3.0 WNW 32 35 17 19 1005.9 - -
28/10:30pm 27.2 26.2 22.6 76 3.1 WNW 32 37 17 20 1006.0 - -
28/10:00pm 27.3 26.3 22.7 76 3.1 W 32 35 17 19 1006.0 - -
28/09:30pm 27.4 26.9 22.8 76 3.1 WNW 30 35 16 19 1005.8 - -
28/09:00pm 27.5 26.4 22.4 73 3.5 WNW 32 37 17 20 1005.7 1005.6 -
28/08:30pm 27.5 26.7 22.4 73 3.4 WNW 30 35 16 19 1005.5 - -
28/08:00pm 27.5 26.6 22.2 73 3.6 WNW 30 35 16 19 1005.3 - -
28/07:30pm 27.7 26.9 22.4 73 3.6 WNW 30 35 16 19 1005.2 - -
28/07:00pm 27.7 27.1 22.0 71 3.8 NW 28 33 15 18 1005.3 - -
28/06:30pm 28.2 27.7 22.2 70 4.0 WNW 28 33 15 18 1005.1 - -
28/06:00pm 28.9 28.3 21.9 66 4.7 WNW 28 33 15 18 1004.8 1004.7 -
28/05:30pm 29.8 30.0 22.0 63 5.3 NW 24 30 13 16 1004.7 - -
28/05:00pm 30.4 30.3 22.3 62 5.5 WNW 26 30 14 16 1004.4 - -
28/04:30pm 30.8 31.0 22.7 62 5.5 WNW 26 30 14 16 1004.2 - -
28/04:00pm 30.8 31.3 21.9 59 6.0 WNW 22 28 12 15 1004.4 - -
28/03:30pm 31.2 31.8 21.4 56 6.6 NW 20 24 11 13 1004.7 - -
28/03:00pm 31.3 32.3 21.8 57 6.4 NW 19 22 10 12 1004.9 1004.8 -
28/02:30pm 32.1 34.1 22.2 56 6.7 NW 15 20 8 11 1005.3 - -
28/02:00pm 32.3 33.9 21.5 53 7.3 NW 15 17 8 9 1005.5 - -
28/01:30pm 31.5 33.3 21.1 54 7.0 WNW 13 17 7 9 1005.9 - -
28/01:00pm 31.6 32.7 20.5 51 7.4 WNW 15 20 8 11 1006.0 - -
28/12:30pm 32.2 33.6 21.1 52 7.5 WNW 15 19 8 10 1006.2 - -
28/12:00pm 31.9 32.9 21.1 52 7.3 WNW 17 22 9 12 1006.5 1006.4 -
28/11:30am 31.3 32.4 21.2 55 6.8 WNW 17 20 9 11 1006.8 - -
28/11:00am 31.7 32.6 20.9 52 7.2 W 17 20 9 11 1007.2 - -
28/10:30am 31.6 32.4 21.4 54 6.9 W 19 20 10 11 1007.4 - -
28/10:00am 31.0 31.9 20.9 55 6.7 W 17 20 9 11 1007.6 - -
28/09:30am 31.1 32.8 21.6 57 6.4 W 15 19 8 10 1007.8 - -
28/09:00am 30.9 32.2 21.7 58 6.2 W 17 20 9 11 1007.9 1007.8 -
28/08:30am 30.4 32.0 21.5 59 6.0 W 15 20 8 11 1008.0 - -
28/08:00am 29.9 31.0 21.3 60 5.8 W 17 19 9 10 1007.7 - -
28/07:30am 29.0 29.5 21.2 62 5.2 W 20 24 11 13 1007.4 - -
28/07:00am 28.2 28.9 21.5 67 4.5 W 20 24 11 13 1007.1 - -
28/06:30am 27.3 27.3 20.9 68 4.2 W 22 26 12 14 1006.6 - -
28/06:00am 27.0 26.9 21.5 72 3.7 W 24 28 13 15 1006.3 1006.2 -
28/05:30am 27.0 26.7 21.1 70 3.9 W 24 28 13 15 1006.0 - -
28/05:00am 27.0 27.2 22.0 74 3.4 WSW 24 28 13 15 1005.7 - -
28/04:30am 27.1 26.9 22.1 74 3.4 W 26 32 14 17 1005.3 - -
28/04:00am 27.0 25.4 21.5 72 3.7 W 32 37 17 20 1005.4 - -
28/03:30am 27.1 26.2 22.1 74 3.4 W 30 35 16 19 1005.0 - -
28/03:00am 26.9 25.6 22.1 75 3.2 W 32 35 17 19 1004.8 1004.7 -
28/02:30am 27.1 25.8 22.5 76 3.1 W 33 41 18 22 1004.8 - -
28/02:00am 27.0 25.7 22.4 76 3.1 W 33 39 18 21 1004.9 - -
28/01:30am 26.9 25.7 22.3 76 3.1 W 32 37 17 20 1004.9 - -
28/01:00am 26.9 25.7 22.3 76 3.1 WNW 32 35 17 19 1005.1 - -
28/12:30am 27.0 26.0 22.6 77 3.0 WNW 32 39 17 21 1005.5 - -
28/12:00am 27.0 26.0 22.6 77 3.0 WNW 32 37 17 20 1005.8 1005.7 -
 
Date/Time
WST
Temp
°C
App
Temp
°C
Dew
Point
Rel
Hum
%
Delta-T
°C
Wind Press
QNH
hPa
Press
MSL
hPa
Rain
since 9 am
mm
Dir
 
Spd
km/h
Gust
km/h
Spd
kts
Gust
kts
27/11:30pm 26.8 26.0 22.4 77 3.0 WNW 30 35 16 19 1006.2 - -
27/11:00pm 26.9 26.2 22.5 77 3.0 WNW 30 35 16 19 1006.4 - -
27/10:30pm 27.1 26.9 22.7 77 3.0 WNW 28 35 15 19 1006.7 - -
27/10:00pm 27.2 26.6 22.6 76 3.1 WNW 30 35 16 19 1006.7 - -
27/09:30pm 27.3 27.5 22.7 76 3.1 WNW 26 32 14 17 1006.5 - -
27/09:00pm 27.4 27.5 22.6 75 3.3 NW 26 30 14 16 1006.3 1006.2 -
27/08:30pm 27.5 27.7 22.7 75 3.3 WNW 26 30 14 16 1006.2 - -
27/08:00pm 27.6 27.7 22.5 74 3.4 WNW 26 32 14 17 1006.0 - -
27/07:30pm 27.8 28.3 22.7 74 3.5 NW 24 28 13 15 1006.2 - -
27/07:00pm 27.8 28.2 22.5 73 3.6 NW 24 28 13 15 1005.8 - -

Other Formats:

Comma delimited format used in spreadsheet applications
http://www.bom.gov.au/fwo/IDW60801/IDW60801.94310.axf

JavaScript Object Notation format (JSON) in row-major order
http://www.bom.gov.au/fwo/IDW60801/IDW60801.94310.json